KLM22M EDDS-EHAM
Flight info
| Callsign | KLM22M |
|---|---|
| Flight time | 1h 10m |
| Altitude | 38000 |
| Route | OKIBA4B/25 OKIBA N851 RIMKI Z99 LOHRE DCT MASEK DCT MAPOX DCT NORKU |
| Aircraft | A346/H-SDE2E3FGHIJ3J4J5M1RWXY/LB1D1 |
Departure
| Time | 2026-05-06 17:46 |
|---|---|
| Airport | Stuttgart Airport (EDDS) |
Arrival
| Time | 2026-05-06 18:57 |
|---|---|
| Airport | Amsterdam Airport Schiphol (EHAM) |
| Time | Latitude | Longitude | Altitude | Speed | Heading |
|---|---|---|---|---|---|
| 2026-05-06 17:21 | 48.69049 | 9.19985 | 1303 ft | 0 kts | 344° |
| 2026-05-06 17:34 | 48.69036 | 9.19990 | 1303 ft | 2 kts | 344° |
| 2026-05-06 17:34 | 48.69023 | 9.19997 | 1303 ft | 2 kts | 344° |
| 2026-05-06 17:35 | 48.69008 | 9.20003 | 1303 ft | 2 kts | 344° |
| 2026-05-06 17:35 | 48.68994 | 9.20009 | 1303 ft | 2 kts | 343° |
| 2026-05-06 17:35 | 48.68979 | 9.20016 | 1303 ft | 2 kts | 343° |
| 2026-05-06 17:36 | 48.68953 | 9.20026 | 1303 ft | 1 kts | 4° |
| 2026-05-06 17:36 | 48.68946 | 9.20024 | 1303 ft | 1 kts | 34° |
| 2026-05-06 17:36 | 48.68941 | 9.20018 | 1303 ft | 1 kts | 40° |
| 2026-05-06 17:36 | 48.68940 | 9.20017 | 1303 ft | 0 kts | 40° |
| 2026-05-06 17:39 | 48.68959 | 9.20040 | 1303 ft | 8 kts | 38° |
| 2026-05-06 17:39 | 48.69000 | 9.20130 | 1298 ft | 14 kts | 71° |
| 2026-05-06 17:40 | 48.69032 | 9.20289 | 1291 ft | 15 kts | 73° |
| 2026-05-06 17:40 | 48.69060 | 9.20440 | 1287 ft | 8 kts | 78° |
| 2026-05-06 17:40 | 48.69040 | 9.20507 | 1285 ft | 8 kts | 127° |
| 2026-05-06 17:40 | 48.68991 | 9.20590 | 1281 ft | 13 kts | 134° |
| 2026-05-06 17:41 | 48.68952 | 9.20662 | 1278 ft | 3 kts | 114° |
| 2026-05-06 17:41 | 48.68971 | 9.20767 | 1275 ft | 15 kts | 68° |
| 2026-05-06 17:41 | 48.69009 | 9.20944 | 1269 ft | 19 kts | 73° |
| 2026-05-06 17:41 | 48.69052 | 9.21155 | 1264 ft | 21 kts | 69° |
| 2026-05-06 17:42 | 48.69089 | 9.21365 | 1259 ft | 20 kts | 75° |
| 2026-05-06 17:42 | 48.69128 | 9.21573 | 1256 ft | 21 kts | 74° |
| 2026-05-06 17:42 | 48.69170 | 9.21793 | 1252 ft | 22 kts | 73° |
| 2026-05-06 17:42 | 48.69215 | 9.22028 | 1247 ft | 23 kts | 74° |
| 2026-05-06 17:43 | 48.69261 | 9.22275 | 1241 ft | 25 kts | 75° |
| 2026-05-06 17:43 | 48.69311 | 9.22534 | 1234 ft | 26 kts | 71° |
| 2026-05-06 17:43 | 48.69362 | 9.22813 | 1225 ft | 28 kts | 75° |
| 2026-05-06 17:43 | 48.69417 | 9.23104 | 1217 ft | 29 kts | 72° |
| 2026-05-06 17:44 | 48.69477 | 9.23406 | 1210 ft | 30 kts | 75° |
| 2026-05-06 17:44 | 48.69533 | 9.23709 | 1205 ft | 28 kts | 73° |
| 2026-05-06 17:44 | 48.69584 | 9.23972 | 1200 ft | 23 kts | 73° |
| 2026-05-06 17:44 | 48.69603 | 9.24157 | 1196 ft | 15 kts | 108° |
| 2026-05-06 17:45 | 48.69546 | 9.24287 | 1192 ft | 15 kts | 152° |
| 2026-05-06 17:45 | 48.69449 | 9.24334 | 1190 ft | 10 kts | 166° |
| 2026-05-06 17:45 | 48.69408 | 9.24342 | 1189 ft | 4 kts | 195° |
| 2026-05-06 17:45 | 48.69392 | 9.24309 | 1189 ft | 8 kts | 245° |
| 2026-05-06 17:46 | 48.69311 | 9.23899 | 1198 ft | 75 kts | 255° |
| 2026-05-06 17:46 | 48.69107 | 9.22834 | 1224 ft | 135 kts | 253° |
| 2026-05-06 17:46 | 48.68796 | 9.21226 | 1340 ft | 177 kts | 253° |
| 2026-05-06 17:46 | 48.68461 | 9.19476 | 2123 ft | 171 kts | 255° |
| 2026-05-06 17:47 | 48.68156 | 9.17828 | 3005 ft | 163 kts | 254° |
| 2026-05-06 17:47 | 48.67841 | 9.16166 | 3588 ft | 172 kts | 254° |
| 2026-05-06 17:47 | 48.67485 | 9.14361 | 3924 ft | 187 kts | 254° |
| 2026-05-06 17:47 | 48.67094 | 9.12414 | 4231 ft | 203 kts | 254° |
| 2026-05-06 17:48 | 48.66919 | 9.10238 | 4543 ft | 221 kts | 277° |
| 2026-05-06 17:48 | 48.67464 | 9.08004 | 5036 ft | 233 kts | 303° |
| 2026-05-06 17:48 | 48.68651 | 9.06341 | 5698 ft | 241 kts | 328° |
| 2026-05-06 17:48 | 48.70281 | 9.05556 | 6254 ft | 254 kts | 345° |
| 2026-05-06 17:49 | 48.72096 | 9.05349 | 6576 ft | 275 kts | 5° |
| 2026-05-06 17:49 | 48.73957 | 9.06031 | 7212 ft | 282 kts | 13° |
| 2026-05-06 17:49 | 48.75840 | 9.06911 | 7953 ft | 283 kts | 14° |
| 2026-05-06 17:49 | 48.77710 | 9.07767 | 8650 ft | 284 kts | 13° |
| 2026-05-06 17:50 | 48.79592 | 9.08580 | 9308 ft | 286 kts | 13° |
| 2026-05-06 17:50 | 48.81515 | 9.09376 | 9970 ft | 288 kts | 13° |
| 2026-05-06 17:50 | 48.83481 | 9.10165 | 10440 ft | 298 kts | 13° |
| 2026-05-06 17:50 | 48.85543 | 9.10981 | 10723 ft | 314 kts | 13° |
| 2026-05-06 17:51 | 48.87690 | 9.11820 | 11008 ft | 329 kts | 12° |
| 2026-05-06 17:51 | 48.89954 | 9.12700 | 11282 ft | 345 kts | 13° |
| 2026-05-06 17:51 | 48.92334 | 9.13624 | 11548 ft | 360 kts | 12° |
| 2026-05-06 17:51 | 48.94806 | 9.14584 | 11823 ft | 374 kts | 13° |
| 2026-05-06 17:52 | 48.97327 | 9.15564 | 12285 ft | 382 kts | 13° |
| 2026-05-06 17:52 | 48.99905 | 9.16569 | 12907 ft | 386 kts | 13° |
| 2026-05-06 17:52 | 49.02514 | 9.17586 | 13521 ft | 389 kts | 13° |
| 2026-05-06 17:52 | 49.05130 | 9.18605 | 14125 ft | 393 kts | 13° |
| 2026-05-06 17:53 | 49.07776 | 9.19636 | 14692 ft | 397 kts | 13° |
| 2026-05-06 17:53 | 49.10472 | 9.20688 | 15242 ft | 402 kts | 13° |
| 2026-05-06 17:53 | 49.13190 | 9.21748 | 15808 ft | 406 kts | 14° |
| 2026-05-06 17:53 | 49.15948 | 9.22829 | 16381 ft | 410 kts | 14° |
| 2026-05-06 17:54 | 49.18700 | 9.23909 | 16923 ft | 415 kts | 14° |
| 2026-05-06 17:54 | 49.21514 | 9.25015 | 17450 ft | 419 kts | 14° |
| 2026-05-06 17:54 | 49.24324 | 9.26121 | 17973 ft | 424 kts | 14° |
| 2026-05-06 17:54 | 49.27195 | 9.27252 | 18504 ft | 428 kts | 14° |
| 2026-05-06 17:55 | 49.30076 | 9.28388 | 19010 ft | 433 kts | 14° |
| 2026-05-06 17:55 | 49.33026 | 9.29512 | 19519 ft | 437 kts | 13° |
| 2026-05-06 17:55 | 49.36014 | 9.30424 | 20024 ft | 441 kts | 9° |
| 2026-05-06 17:55 | 49.39050 | 9.31076 | 20519 ft | 445 kts | 6° |
| 2026-05-06 17:56 | 49.42129 | 9.31564 | 21003 ft | 448 kts | 5° |
| 2026-05-06 17:56 | 49.45253 | 9.32014 | 21478 ft | 452 kts | 5° |
| 2026-05-06 17:56 | 49.48346 | 9.32454 | 21916 ft | 456 kts | 5° |
| 2026-05-06 17:56 | 49.51529 | 9.32912 | 22351 ft | 460 kts | 5° |
| 2026-05-06 17:57 | 49.54726 | 9.33381 | 22801 ft | 463 kts | 5° |
| 2026-05-06 17:57 | 49.57901 | 9.33849 | 23227 ft | 466 kts | 5° |
| 2026-05-06 17:57 | 49.61135 | 9.34331 | 23645 ft | 469 kts | 5° |
| 2026-05-06 17:57 | 49.64373 | 9.34815 | 24044 ft | 473 kts | 5° |
| 2026-05-06 17:58 | 49.67650 | 9.35307 | 24453 ft | 476 kts | 5° |
| 2026-05-06 17:58 | 49.70974 | 9.35806 | 24824 ft | 479 kts | 5° |
| 2026-05-06 17:58 | 49.74288 | 9.36468 | 25209 ft | 482 kts | 8° |
| 2026-05-06 17:58 | 49.77545 | 9.37396 | 25579 ft | 485 kts | 11° |
| 2026-05-06 17:59 | 49.80868 | 9.38589 | 25909 ft | 489 kts | 13° |
| 2026-05-06 17:59 | 49.84159 | 9.39859 | 26233 ft | 492 kts | 14° |
| 2026-05-06 17:59 | 49.87492 | 9.41167 | 26561 ft | 495 kts | 14° |
| 2026-05-06 17:59 | 49.90832 | 9.42476 | 26875 ft | 499 kts | 14° |
| 2026-05-06 18:00 | 49.94182 | 9.43783 | 27216 ft | 501 kts | 14° |
| 2026-05-06 18:00 | 49.97573 | 9.45102 | 27523 ft | 504 kts | 14° |
| 2026-05-06 18:00 | 50.00942 | 9.46408 | 27792 ft | 507 kts | 14° |
| 2026-05-06 18:00 | 50.04380 | 9.47689 | 28085 ft | 510 kts | 12° |
| 2026-05-06 18:01 | 50.07880 | 9.48723 | 28372 ft | 513 kts | 9° |
| 2026-05-06 18:01 | 50.11429 | 9.49480 | 28655 ft | 516 kts | 6° |
| 2026-05-06 18:01 | 50.14998 | 9.50098 | 28980 ft | 517 kts | 5° |
| 2026-05-06 18:01 | 50.18525 | 9.50669 | 29383 ft | 516 kts | 5° |
| 2026-05-06 18:02 | 50.22133 | 9.51247 | 29777 ft | 516 kts | 5° |
| 2026-05-06 18:02 | 50.25660 | 9.51821 | 30116 ft | 517 kts | 5° |
| 2026-05-06 18:02 | 50.29229 | 9.52412 | 30458 ft | 517 kts | 5° |
| 2026-05-06 18:02 | 50.32791 | 9.53007 | 30782 ft | 518 kts | 5° |
| 2026-05-06 18:03 | 50.36369 | 9.53608 | 31092 ft | 518 kts | 5° |
| 2026-05-06 18:03 | 50.39934 | 9.54214 | 31400 ft | 518 kts | 5° |
| 2026-05-06 18:03 | 50.43486 | 9.54818 | 31726 ft | 517 kts | 5° |
| 2026-05-06 18:03 | 50.47057 | 9.55426 | 32087 ft | 515 kts | 4° |
| 2026-05-06 18:04 | 50.50589 | 9.56027 | 32447 ft | 513 kts | 4° |
| 2026-05-06 18:04 | 50.54113 | 9.56625 | 32797 ft | 512 kts | 4° |
| 2026-05-06 18:04 | 50.57637 | 9.57225 | 33133 ft | 510 kts | 4° |
| 2026-05-06 18:04 | 50.61145 | 9.57820 | 33457 ft | 508 kts | 3° |
| 2026-05-06 18:05 | 50.64668 | 9.57962 | 33715 ft | 504 kts | 353° |
| 2026-05-06 18:05 | 50.68098 | 9.57240 | 33973 ft | 499 kts | 343° |
| 2026-05-06 18:05 | 50.71394 | 9.55697 | 34239 ft | 492 kts | 334° |
| 2026-05-06 18:05 | 50.74464 | 9.53411 | 34487 ft | 486 kts | 326° |
| 2026-05-06 18:06 | 50.77238 | 9.50475 | 34721 ft | 480 kts | 317° |
| 2026-05-06 18:06 | 50.79684 | 9.46969 | 34934 ft | 475 kts | 309° |
| 2026-05-06 18:06 | 50.81840 | 9.43024 | 35152 ft | 472 kts | 305° |
| 2026-05-06 18:06 | 50.83894 | 9.39017 | 35358 ft | 471 kts | 304° |
| 2026-05-06 18:07 | 50.85926 | 9.35007 | 35553 ft | 471 kts | 305° |
| 2026-05-06 18:07 | 50.87986 | 9.30958 | 35752 ft | 471 kts | 305° |
| 2026-05-06 18:07 | 50.90039 | 9.26945 | 35945 ft | 470 kts | 305° |
| 2026-05-06 18:07 | 50.92080 | 9.22971 | 36122 ft | 470 kts | 306° |
| 2026-05-06 18:08 | 50.94136 | 9.18972 | 36272 ft | 471 kts | 306° |
| 2026-05-06 18:08 | 50.96205 | 9.14951 | 36417 ft | 472 kts | 306° |
| 2026-05-06 18:08 | 50.98273 | 9.10928 | 36541 ft | 473 kts | 306° |
| 2026-05-06 18:08 | 51.00337 | 9.06908 | 36671 ft | 474 kts | 306° |
| 2026-05-06 18:09 | 51.02406 | 9.02870 | 36791 ft | 475 kts | 306° |
| 2026-05-06 18:09 | 51.04498 | 8.98781 | 36925 ft | 475 kts | 306° |
| 2026-05-06 18:09 | 51.06562 | 8.94744 | 37052 ft | 476 kts | 306° |
| 2026-05-06 18:09 | 51.08663 | 8.90624 | 37180 ft | 477 kts | 306° |
| 2026-05-06 18:10 | 51.10744 | 8.86531 | 37311 ft | 477 kts | 306° |
| 2026-05-06 18:10 | 51.12850 | 8.82469 | 37422 ft | 479 kts | 308° |
| 2026-05-06 18:10 | 51.15058 | 8.78583 | 37530 ft | 481 kts | 310° |
| 2026-05-06 18:10 | 51.17381 | 8.74722 | 37642 ft | 482 kts | 311° |
| 2026-05-06 18:11 | 51.22045 | 8.67076 | 37786 ft | 484 kts | 311° |
| 2026-05-06 18:11 | 51.26727 | 8.59382 | 37792 ft | 484 kts | 311° |
| 2026-05-06 18:12 | 51.31382 | 8.51696 | 37796 ft | 484 kts | 311° |
| 2026-05-06 18:12 | 51.36022 | 8.44000 | 37798 ft | 484 kts | 311° |
| 2026-05-06 18:13 | 51.40674 | 8.36260 | 37806 ft | 484 kts | 311° |
| 2026-05-06 18:13 | 51.45326 | 8.28492 | 37815 ft | 484 kts | 311° |
| 2026-05-06 18:14 | 51.49950 | 8.20746 | 37822 ft | 483 kts | 311° |
| 2026-05-06 18:14 | 51.54588 | 8.12953 | 37549 ft | 483 kts | 311° |
| 2026-05-06 18:15 | 51.56858 | 8.09131 | 37268 ft | 480 kts | 311° |
| 2026-05-06 18:15 | 51.59175 | 8.05223 | 36864 ft | 480 kts | 311° |
| 2026-05-06 18:15 | 51.61448 | 8.01384 | 36392 ft | 481 kts | 311° |
| 2026-05-06 18:15 | 51.63769 | 7.97457 | 35861 ft | 482 kts | 311° |
| 2026-05-06 18:16 | 51.66038 | 7.93612 | 35324 ft | 483 kts | 311° |
| 2026-05-06 18:16 | 51.68353 | 7.89680 | 34745 ft | 484 kts | 311° |
| 2026-05-06 18:16 | 51.70678 | 7.85728 | 34147 ft | 486 kts | 311° |
| 2026-05-06 18:16 | 51.72985 | 7.81799 | 33546 ft | 488 kts | 311° |
| 2026-05-06 18:17 | 51.75298 | 7.77853 | 32906 ft | 489 kts | 312° |
| 2026-05-06 18:17 | 51.77625 | 7.73876 | 32155 ft | 490 kts | 312° |
| 2026-05-06 18:17 | 51.79939 | 7.69919 | 31382 ft | 492 kts | 312° |
| 2026-05-06 18:17 | 51.82304 | 7.65867 | 30534 ft | 492 kts | 312° |
| 2026-05-06 18:18 | 51.84615 | 7.61902 | 29784 ft | 490 kts | 312° |
| 2026-05-06 18:18 | 51.86932 | 7.57920 | 29083 ft | 487 kts | 312° |
| 2026-05-06 18:18 | 51.89243 | 7.53943 | 28400 ft | 484 kts | 312° |
| 2026-05-06 18:18 | 51.91502 | 7.50048 | 27899 ft | 477 kts | 312° |
| 2026-05-06 18:19 | 51.93762 | 7.46148 | 27557 ft | 470 kts | 312° |
| 2026-05-06 18:19 | 51.95974 | 7.42322 | 27165 ft | 468 kts | 312° |
| 2026-05-06 18:19 | 51.98180 | 7.38501 | 26723 ft | 466 kts | 312° |
| 2026-05-06 18:19 | 52.00388 | 7.34670 | 26238 ft | 462 kts | 311° |
| 2026-05-06 18:20 | 52.02568 | 7.30881 | 25796 ft | 457 kts | 311° |
| 2026-05-06 18:20 | 52.04699 | 7.27175 | 25389 ft | 452 kts | 311° |
| 2026-05-06 18:20 | 52.06825 | 7.23468 | 24995 ft | 447 kts | 311° |
| 2026-05-06 18:20 | 52.08930 | 7.19793 | 24606 ft | 442 kts | 311° |
| 2026-05-06 18:21 | 52.11002 | 7.16172 | 24224 ft | 437 kts | 311° |
| 2026-05-06 18:21 | 52.13041 | 7.12603 | 23826 ft | 433 kts | 311° |
| 2026-05-06 18:21 | 52.15084 | 7.09023 | 23438 ft | 430 kts | 311° |
| 2026-05-06 18:21 | 52.17121 | 7.05443 | 23027 ft | 426 kts | 311° |
| 2026-05-06 18:22 | 52.19118 | 7.01930 | 22614 ft | 423 kts | 311° |
| 2026-05-06 18:22 | 52.21091 | 6.98434 | 22213 ft | 420 kts | 310° |
| 2026-05-06 18:22 | 52.22973 | 6.94829 | 21803 ft | 416 kts | 309° |
| 2026-05-06 18:22 | 52.24775 | 6.91246 | 21409 ft | 413 kts | 308° |
| 2026-05-06 18:23 | 52.26583 | 6.87622 | 21003 ft | 410 kts | 308° |
| 2026-05-06 18:23 | 52.28377 | 6.84018 | 20607 ft | 407 kts | 308° |
| 2026-05-06 18:23 | 52.30142 | 6.80474 | 20221 ft | 404 kts | 308° |
| 2026-05-06 18:23 | 52.31908 | 6.76926 | 19821 ft | 401 kts | 308° |
| 2026-05-06 18:24 | 52.33645 | 6.73434 | 19434 ft | 398 kts | 308° |
| 2026-05-06 18:24 | 52.35367 | 6.69969 | 19043 ft | 395 kts | 309° |
| 2026-05-06 18:24 | 52.37100 | 6.66476 | 18639 ft | 392 kts | 309° |
| 2026-05-06 18:24 | 52.38799 | 6.63048 | 18245 ft | 389 kts | 309° |
| 2026-05-06 18:25 | 52.40477 | 6.59655 | 17850 ft | 386 kts | 309° |
| 2026-05-06 18:25 | 52.42160 | 6.56250 | 17451 ft | 384 kts | 309° |
| 2026-05-06 18:25 | 52.43824 | 6.52878 | 17053 ft | 382 kts | 309° |
| 2026-05-06 18:25 | 52.45425 | 6.49399 | 16643 ft | 379 kts | 302° |
| 2026-05-06 18:26 | 52.46546 | 6.45524 | 16241 ft | 377 kts | 290° |
| 2026-05-06 18:26 | 52.47144 | 6.41428 | 15854 ft | 375 kts | 278° |
| 2026-05-06 18:26 | 52.47385 | 6.37154 | 15466 ft | 373 kts | 276° |
| 2026-05-06 18:26 | 52.47577 | 6.32939 | 15070 ft | 371 kts | 275° |
| 2026-05-06 18:27 | 52.47767 | 6.28759 | 14684 ft | 369 kts | 275° |
| 2026-05-06 18:27 | 52.47961 | 6.24605 | 14299 ft | 367 kts | 275° |
| 2026-05-06 18:27 | 52.48158 | 6.20483 | 13913 ft | 365 kts | 275° |
| 2026-05-06 18:27 | 52.48358 | 6.16370 | 13526 ft | 363 kts | 275° |
| 2026-05-06 18:28 | 52.48558 | 6.12237 | 13133 ft | 361 kts | 275° |
| 2026-05-06 18:28 | 52.48756 | 6.08141 | 12744 ft | 360 kts | 275° |
| 2026-05-06 18:28 | 52.48948 | 6.04113 | 12357 ft | 358 kts | 275° |
| 2026-05-06 18:28 | 52.49141 | 6.00055 | 11966 ft | 357 kts | 275° |
| 2026-05-06 18:29 | 52.49332 | 5.95990 | 11579 ft | 355 kts | 275° |
| 2026-05-06 18:29 | 52.49518 | 5.91998 | 11188 ft | 354 kts | 276° |
| 2026-05-06 18:29 | 52.49702 | 5.88020 | 10792 ft | 352 kts | 276° |
| 2026-05-06 18:29 | 52.49888 | 5.84009 | 10390 ft | 351 kts | 276° |
| 2026-05-06 18:30 | 52.50068 | 5.80090 | 10240 ft | 340 kts | 276° |
| 2026-05-06 18:30 | 52.50241 | 5.76304 | 10193 ft | 328 kts | 276° |
| 2026-05-06 18:30 | 52.50406 | 5.72674 | 10140 ft | 317 kts | 276° |
| 2026-05-06 18:30 | 52.50567 | 5.69090 | 9975 ft | 309 kts | 276° |
| 2026-05-06 18:31 | 52.50721 | 5.65619 | 9816 ft | 302 kts | 276° |
| 2026-05-06 18:31 | 52.50870 | 5.62250 | 9650 ft | 295 kts | 276° |
| 2026-05-06 18:31 | 52.50996 | 5.58948 | 9485 ft | 288 kts | 271° |
| 2026-05-06 18:31 | 52.50737 | 5.55711 | 9241 ft | 287 kts | 250° |
| 2026-05-06 18:32 | 52.49795 | 5.52880 | 8975 ft | 287 kts | 239° |
| 2026-05-06 18:32 | 52.48721 | 5.50083 | 8681 ft | 287 kts | 239° |
| 2026-05-06 18:32 | 52.47660 | 5.47312 | 8393 ft | 287 kts | 239° |
| 2026-05-06 18:32 | 52.46610 | 5.44533 | 8117 ft | 287 kts | 240° |
| 2026-05-06 18:33 | 52.45576 | 5.41773 | 7845 ft | 286 kts | 240° |
| 2026-05-06 18:33 | 52.44543 | 5.38998 | 7573 ft | 286 kts | 240° |
| 2026-05-06 18:33 | 52.43520 | 5.36248 | 7339 ft | 285 kts | 240° |
| 2026-05-06 18:33 | 52.42491 | 5.33474 | 7084 ft | 284 kts | 239° |
| 2026-05-06 18:34 | 52.41475 | 5.30740 | 6817 ft | 283 kts | 239° |
| 2026-05-06 18:34 | 52.40448 | 5.27978 | 6545 ft | 283 kts | 239° |
| 2026-05-06 18:34 | 52.39430 | 5.25242 | 6275 ft | 282 kts | 239° |
| 2026-05-06 18:34 | 52.38405 | 5.22488 | 6006 ft | 282 kts | 239° |
| 2026-05-06 18:35 | 52.37391 | 5.19767 | 5764 ft | 282 kts | 239° |
| 2026-05-06 18:35 | 52.36377 | 5.17054 | 5461 ft | 282 kts | 239° |
| 2026-05-06 18:35 | 52.35363 | 5.14346 | 5240 ft | 281 kts | 239° |
| 2026-05-06 18:35 | 52.34349 | 5.11645 | 4992 ft | 281 kts | 239° |
| 2026-05-06 18:36 | 52.33331 | 5.08940 | 4701 ft | 281 kts | 239° |
| 2026-05-06 18:36 | 52.32314 | 5.06246 | 4440 ft | 280 kts | 239° |
| 2026-05-06 18:36 | 52.31281 | 5.03520 | 4200 ft | 280 kts | 239° |
| 2026-05-06 18:36 | 52.30257 | 5.00825 | 3939 ft | 279 kts | 239° |
| 2026-05-06 18:37 | 52.29239 | 4.98146 | 3672 ft | 279 kts | 239° |
| 2026-05-06 18:37 | 52.28212 | 4.95451 | 3415 ft | 280 kts | 239° |
| 2026-05-06 18:37 | 52.27194 | 4.92793 | 3166 ft | 280 kts | 239° |
| 2026-05-06 18:37 | 52.26163 | 4.90105 | 2928 ft | 279 kts | 239° |
| 2026-05-06 18:38 | 52.25135 | 4.87423 | 2697 ft | 278 kts | 239° |
| 2026-05-06 18:38 | 52.24117 | 4.84759 | 2472 ft | 277 kts | 239° |
| 2026-05-06 18:38 | 52.23100 | 4.82089 | 2243 ft | 277 kts | 239° |
| 2026-05-06 18:38 | 52.22094 | 4.79449 | 2046 ft | 275 kts | 239° |
| 2026-05-06 18:39 | 52.21099 | 4.76848 | 2016 ft | 266 kts | 239° |
| 2026-05-06 18:39 | 52.20137 | 4.74346 | 2007 ft | 256 kts | 239° |
| 2026-05-06 18:39 | 52.19199 | 4.71904 | 2015 ft | 256 kts | 239° |
| 2026-05-06 18:40 | 52.17307 | 4.66974 | 2022 ft | 256 kts | 239° |
| 2026-05-06 18:40 | 52.16366 | 4.64518 | 2019 ft | 256 kts | 239° |
| 2026-05-06 18:40 | 52.15440 | 4.62096 | 2013 ft | 246 kts | 239° |
| 2026-05-06 18:40 | 52.14566 | 4.59812 | 2002 ft | 235 kts | 239° |
| 2026-05-06 18:41 | 52.13747 | 4.57574 | 1996 ft | 222 kts | 250° |
| 2026-05-06 18:41 | 52.13547 | 4.55241 | 1978 ft | 202 kts | 289° |
| 2026-05-06 18:41 | 52.14172 | 4.53369 | 2007 ft | 182 kts | 322° |
| 2026-05-06 18:41 | 52.15181 | 4.52247 | 2027 ft | 174 kts | 351° |
| 2026-05-06 18:42 | 52.16329 | 4.52341 | 2030 ft | 166 kts | 21° |
| 2026-05-06 18:42 | 52.17403 | 4.53029 | 2031 ft | 165 kts | 26° |
| 2026-05-06 18:42 | 52.18453 | 4.53816 | 2028 ft | 165 kts | 27° |
| 2026-05-06 18:42 | 52.19478 | 4.54606 | 2029 ft | 164 kts | 27° |
| 2026-05-06 18:43 | 52.20515 | 4.55411 | 2025 ft | 164 kts | 28° |
| 2026-05-06 18:43 | 52.21550 | 4.56214 | 2021 ft | 164 kts | 28° |
| 2026-05-06 18:43 | 52.22438 | 4.57334 | 2024 ft | 164 kts | 48° |
| 2026-05-06 18:43 | 52.23140 | 4.58793 | 2024 ft | 164 kts | 53° |
| 2026-05-06 18:44 | 52.23785 | 4.60321 | 1899 ft | 163 kts | 56° |
| 2026-05-06 18:44 | 52.24383 | 4.61854 | 1676 ft | 156 kts | 56° |
| 2026-05-06 18:44 | 52.24943 | 4.63328 | 1472 ft | 150 kts | 57° |
| 2026-05-06 18:44 | 52.25481 | 4.64746 | 1279 ft | 144 kts | 58° |
| 2026-05-06 18:45 | 52.26009 | 4.66132 | 1099 ft | 146 kts | 56° |
| 2026-05-06 18:45 | 52.26545 | 4.67533 | 914 ft | 147 kts | 58° |
| 2026-05-06 18:45 | 52.27085 | 4.68948 | 719 ft | 145 kts | 58° |
| 2026-05-06 18:45 | 52.27630 | 4.70376 | 603 ft | 157 kts | 56° |
| 2026-05-06 18:46 | 52.28218 | 4.71882 | 1284 ft | 160 kts | 55° |
| 2026-05-06 18:46 | 52.28819 | 4.73421 | 1808 ft | 168 kts | 56° |
| 2026-05-06 18:46 | 52.29485 | 4.75114 | 2028 ft | 193 kts | 55° |
| 2026-05-06 18:46 | 52.30259 | 4.77072 | 2019 ft | 208 kts | 56° |
| 2026-05-06 18:47 | 52.30929 | 4.79148 | 2008 ft | 213 kts | 75° |
| 2026-05-06 18:47 | 52.30852 | 4.81570 | 2014 ft | 222 kts | 108° |
| 2026-05-06 18:47 | 52.29918 | 4.83613 | 2025 ft | 234 kts | 140° |
| 2026-05-06 18:47 | 52.28486 | 4.84933 | 2047 ft | 238 kts | 150° |
| 2026-05-06 18:48 | 52.26970 | 4.86041 | 2041 ft | 239 kts | 152° |
| 2026-05-06 18:48 | 52.25438 | 4.87106 | 2035 ft | 239 kts | 152° |
| 2026-05-06 18:48 | 52.23913 | 4.88101 | 2033 ft | 241 kts | 161° |
| 2026-05-06 18:48 | 52.22229 | 4.88153 | 2019 ft | 249 kts | 194° |
| 2026-05-06 18:49 | 52.20732 | 4.86783 | 2019 ft | 242 kts | 227° |
| 2026-05-06 18:49 | 52.19662 | 4.84678 | 2040 ft | 241 kts | 235° |
| 2026-05-06 18:49 | 52.18695 | 4.82426 | 2042 ft | 245 kts | 237° |
| 2026-05-06 18:49 | 52.17733 | 4.80107 | 2037 ft | 246 kts | 237° |
| 2026-05-06 18:50 | 52.16792 | 4.77820 | 2041 ft | 245 kts | 238° |
| 2026-05-06 18:50 | 52.15843 | 4.75514 | 2035 ft | 245 kts | 238° |
| 2026-05-06 18:50 | 52.14895 | 4.73208 | 2035 ft | 245 kts | 238° |
| 2026-05-06 18:50 | 52.13952 | 4.70915 | 2027 ft | 245 kts | 238° |
| 2026-05-06 18:51 | 52.13002 | 4.68610 | 2030 ft | 245 kts | 238° |
| 2026-05-06 18:51 | 52.12317 | 4.66127 | 2012 ft | 241 kts | 266° |
| 2026-05-06 18:51 | 52.12483 | 4.63533 | 2011 ft | 223 kts | 300° |
| 2026-05-06 18:51 | 52.13366 | 4.61681 | 2036 ft | 200 kts | 326° |
| 2026-05-06 18:52 | 52.14474 | 4.60337 | 2046 ft | 199 kts | 332° |
| 2026-05-06 18:52 | 52.15615 | 4.59086 | 2029 ft | 191 kts | 333° |
| 2026-05-06 18:52 | 52.16705 | 4.57903 | 2038 ft | 189 kts | 333° |
| 2026-05-06 18:52 | 52.17794 | 4.56724 | 2038 ft | 189 kts | 333° |
| 2026-05-06 18:53 | 52.18890 | 4.55539 | 2039 ft | 189 kts | 333° |
| 2026-05-06 18:53 | 52.20043 | 4.54630 | 2022 ft | 181 kts | 358° |
| 2026-05-06 18:53 | 52.21217 | 4.55062 | 2029 ft | 174 kts | 34° |
| 2026-05-06 18:53 | 52.22088 | 4.56355 | 2029 ft | 166 kts | 50° |
| 2026-05-06 18:54 | 52.22786 | 4.57854 | 2030 ft | 164 kts | 53° |
| 2026-05-06 18:54 | 52.23425 | 4.59379 | 2015 ft | 164 kts | 56° |
| 2026-05-06 18:54 | 52.24039 | 4.60950 | 1812 ft | 164 kts | 57° |
| 2026-05-06 18:54 | 52.24636 | 4.62523 | 1588 ft | 158 kts | 56° |
| 2026-05-06 18:55 | 52.25193 | 4.63994 | 1391 ft | 151 kts | 57° |
| 2026-05-06 18:55 | 52.25732 | 4.65408 | 1191 ft | 144 kts | 57° |
| 2026-05-06 18:55 | 52.26272 | 4.66798 | 1021 ft | 146 kts | 56° |
| 2026-05-06 18:55 | 52.26816 | 4.68215 | 829 ft | 149 kts | 56° |
| 2026-05-06 18:56 | 52.27347 | 4.69649 | 619 ft | 148 kts | 58° |
| 2026-05-06 18:56 | 52.27895 | 4.71080 | 419 ft | 149 kts | 56° |
| 2026-05-06 18:56 | 52.28463 | 4.72520 | 221 ft | 150 kts | 58° |
| 2026-05-06 18:56 | 52.29005 | 4.73972 | 26 ft | 151 kts | 56° |
| 2026-05-06 18:57 | 52.29497 | 4.75258 | 6 ft | 99 kts | 56° |
| 2026-05-06 18:57 | 52.29790 | 4.76006 | 4 ft | 56 kts | 59° |
| 2026-05-06 18:57 | 52.29932 | 4.76386 | 4 ft | 28 kts | 58° |
| 2026-05-06 18:57 | 52.30056 | 4.76562 | 5 ft | 17 kts | 29° |
| 2026-05-06 18:58 | 52.30161 | 4.76657 | 5 ft | 15 kts | 28° |
| 2026-05-06 18:58 | 52.30242 | 4.76725 | 6 ft | 12 kts | 26° |
| 2026-05-06 18:58 | 52.30310 | 4.76817 | 7 ft | 16 kts | 60° |
| 2026-05-06 18:58 | 52.30361 | 4.76950 | 8 ft | 14 kts | 57° |
| 2026-05-06 18:59 | 52.30416 | 4.77091 | 11 ft | 16 kts | 56° |
| 2026-05-06 18:59 | 52.30486 | 4.77270 | 14 ft | 21 kts | 59° |
| 2026-05-06 18:59 | 52.30561 | 4.77471 | 15 ft | 17 kts | 56° |
| 2026-05-06 18:59 | 52.30650 | 4.77577 | 16 ft | 15 kts | 12° |
| 2026-05-06 19:00 | 52.30764 | 4.77599 | 16 ft | 17 kts | 4° |
| 2026-05-06 19:00 | 52.30894 | 4.77611 | 19 ft | 19 kts | 4° |
| 2026-05-06 19:00 | 52.31037 | 4.77624 | 18 ft | 21 kts | 3° |
| 2026-05-06 19:00 | 52.31191 | 4.77638 | 14 ft | 22 kts | 3° |
| 2026-05-06 19:01 | 52.31345 | 4.77651 | 11 ft | 19 kts | 4° |
| 2026-05-06 19:01 | 52.31474 | 4.77614 | 9 ft | 19 kts | 327° |
| 2026-05-06 19:01 | 52.31562 | 4.77452 | 10 ft | 19 kts | 294° |
| 2026-05-06 19:01 | 52.31575 | 4.77243 | 9 ft | 19 kts | 267° |
| 2026-05-06 19:02 | 52.31567 | 4.77018 | 8 ft | 20 kts | 266° |
| 2026-05-06 19:02 | 52.31558 | 4.76769 | 6 ft | 23 kts | 267° |
| 2026-05-06 19:02 | 52.31548 | 4.76500 | 7 ft | 24 kts | 266° |
| 2026-05-06 19:02 | 52.31540 | 4.76223 | 6 ft | 24 kts | 266° |
| 2026-05-06 19:03 | 52.31532 | 4.76012 | 6 ft | 11 kts | 265° |
| 2026-05-06 19:03 | 52.31495 | 4.75923 | 8 ft | 9 kts | 190° |
| 2026-05-06 19:03 | 52.31451 | 4.75991 | 9 ft | 9 kts | 96° |
| 2026-05-06 19:03 | 52.31453 | 4.76100 | 9 ft | 8 kts | 88° |
| 2026-05-06 19:04 | 52.31449 | 4.76145 | 10 ft | 1 kts | 123° |
| 2026-05-06 19:04 | 52.31427 | 4.76163 | 10 ft | 3 kts | 165° |
| 2026-05-06 19:04 | 52.31401 | 4.76170 | 11 ft | 6 kts | 174° |
| 2026-05-06 19:04 | 52.31373 | 4.76172 | 13 ft | 2 kts | 179° |
| 2026-05-06 19:05 | 52.31371 | 4.76172 | 13 ft | 0 kts | 179° |